Alamo, Nevada Weather observations

Data are for observation ending at time listed.
 Day   Time    Ave.   Ave.  Ave.  Vector   Max.   Stn.    Total    Solar   Ave.  
  of    of     Air    Rel.  Wind   Wind    Wind   Baro.  Precip.   Rad.    Soil  
Year   Day     Temp.  Hum.  Speed  Dir.    Gust   Pres.                    Temp. 
2019   (PST)    F      %     mph   deg.    mph     mb.     in.     W/m2     F   
------------------------------------------------------------------------------
 339   14:30   59.4    47    1.4   223      2.8   899.2    0.00     347    55.6
 339   14:40   58.4    48    1.6   206      3.2   899.4    0.00     328    55.8
 339   14:50   57.6    48    2.3   212      4.7   899.5    0.00     318    55.9
 339   15:00   58.3    47    1.1   217      3.4   899.6    0.00     312    55.9
 339   15:10   58.2    47    2.0   213      5.4   899.6    0.00     279    55.9
 339   15:20   58.2    46    1.6   208      3.9   899.6    0.00     238    55.9
 339   15:30   58.4    47    1.0   199      2.5   899.7    0.00     204    55.8
 339   15:40   57.6    50    1.4   192      3.1   899.7    0.00     177    55.5
 339   15:50   55.1    57    1.3   186      2.7   899.8    0.00     108    55.0
 339   16:00   52.7    66    1.5   184      3.9   899.9    0.00      48    54.4
 339   16:10   51.5    69    0.8   190      3.1   900.0    0.00      16    53.8
 339   16:20   50.3    72    1.0   189      2.8   900.2    0.00      13    53.2
 339   16:30   49.4    74    0.3   189      1.7   900.3    0.00       6    52.6
 339   16:40   48.5    75    0.5   203      2.4   900.4    0.00       0    52.1
 339   16:50   47.9    77    0.7   210      2.9   900.6    0.00       0    51.6
 339   17:00   47.4    78    0.5   197      2.9   900.6    0.00       0    51.1
 339   17:10   46.7    79    0.5   193      2.2   900.7    0.00       0    50.7
 339   17:20   46.2    80    0.5   198      1.9   900.7    0.00       0    50.3
 339   17:30   45.9    81    0.4   212      1.5   900.8    0.00       0    49.9
 339   17:40   45.8    82    0.1   218      1.2   900.8    0.00       0    49.5
 339   17:50   45.7    82    0.1   205      0.9   900.9    0.00       0    49.2
 339   18:00   45.3    83    0.1   201      0.9   901.0    0.00       0    48.9
 339   18:10   45.1    84    0.0   197      0.4   901.2    0.00       0    48.7
 339   18:20   44.8    84    0.3   248      1.3   901.3    0.00       0    48.4
 339   18:30   44.9    85    0.8   268      1.8   901.5    0.00       0    48.2
 339   18:40   45.0    85    0.1   281      1.7   901.6    0.00       0    48.0
 339   18:50   44.6    85    0.0     0      0.0   901.7    0.00       0    47.9
 339   19:00   44.4    85    0.0     0      0.0   901.8    0.00       0    47.7
 339   19:10   44.4    86    0.0    49      0.7   902.0    0.00       0    47.6
 339   19:20   44.2    86    0.0     0      0.0   902.1    0.00       0    47.4
 339   19:30   43.9    87    0.5     7      1.5   902.2    0.00       0    47.2
 339   19:40   43.8    88    0.3   336      1.1   902.2    0.00       0    47.1
 339   19:50   43.5    88    0.3   309      1.2   902.3    0.00       0    47.0
 339   20:00   43.4    88    0.1   309      0.9   902.4    0.00       0    46.8
 339   20:10   43.0    88    0.8    11      1.9   902.6    0.00       0    46.7
 339   20:20   42.7    89    0.8    12      2.0   902.7    0.00       0    46.6
 339   20:30   42.2    89    0.4    26      1.2   902.8    0.00       0    46.4
 339   20:40   41.9    89    0.2   348      1.7   902.8    0.00       0    46.3
 339   20:50   41.7    89    0.0   348      0.6   902.9    0.00       0    46.1
 339   21:00   41.5    89    0.0     0      0.0   902.9    0.00       0    45.9
 339   21:10   41.3    89    0.4   290      1.2   902.9    0.00       0    45.8
 339   21:20   41.0    89    0.3   300      1.2   902.9    0.00       0    45.6
 339   21:30   41.0    89    0.0     0      0.0   903.0    0.00       0    45.5
 339   21:40   40.9    89    0.5    36      1.1   902.9    0.00       0    45.4
 339   21:50   40.9    89    0.2     7      1.0   902.9    0.00       0    45.2
 339   22:00   40.9    89    0.3   346      1.0   902.9    0.00       0    45.1
 339   22:10   40.7    88    0.4   289      1.2   902.9    0.00       0    45.0
 339   22:20   40.5    88    0.5   287      1.4   902.9    0.00       0    44.9
 339   22:30   40.4    89    0.8   336      2.3   902.9    0.00       0    44.8
 339   22:40   40.7    88    1.5   349      2.9   902.9    0.00       0    44.6
 339   22:50   40.9    88    1.0     5      2.0   903.0    0.00       0    44.5
 339   23:00   40.7    87    0.6   354      2.0   903.0    0.00       0    44.4
 339   23:10   40.6    87    0.2   330      0.9   903.0    0.00       0    44.3
 339   23:20   40.2    87    0.0   312      0.6   903.0    0.00       0    44.3
 339   23:30   39.8    88    0.0     0      0.0   903.0    0.00       0    44.1
 339   23:40   39.6    88    0.3   338      1.4   903.1    0.00       0    44.0
 339   23:50   39.4    89    0.2   352      0.9   903.1    0.00       0    43.9
 340    0:00   39.4    89    1.3    15      3.1   903.0    0.00       0    43.8
 340    0:10   40.2    88    2.2    10      4.5   902.9    0.00       0    43.7
 340    0:20   40.6    85    2.4   345      4.6   902.9    0.00       0    43.6
 340    0:30   40.6    83    1.4   334      3.0   903.0    0.00       0    43.5
 340    0:40   39.9    84    1.1   300      1.8   903.0    0.00       0    43.4
 340    0:50   39.1    86    0.5   300      1.3   902.9    0.00       0    43.3
 340    1:00   38.5    87    0.3   326      1.2   902.9    0.00       0    43.2
 340    1:10   38.0    88    0.2   321      1.2   902.9    0.00       0    43.1
 340    1:20   37.5    88    1.2   281      1.9   902.9    0.00       0    42.9
 340    1:30   37.4    89    0.3   276      1.7   902.9    0.00       0    42.8
 340    1:40   37.4    89    0.0   352      0.6   902.9    0.00       0    42.7
 340    1:50   37.3    89    0.0     0      0.0   902.9    0.00       0    42.5
 340    2:00   37.6    89    1.4    26      4.1   902.9    0.00       0    42.4
 340    2:10   38.9    87    3.1    28      5.7   902.8    0.00       0    42.3
 340    2:20   39.7    84    3.2    28      5.6   902.7    0.00       0    42.3
 340    2:30   39.9    82    2.9    18      4.6   902.5    0.00       0    42.2
 340    2:40   39.6    82    2.6   359      5.6   902.5    0.00       0    42.1
 340    2:50   39.2    83    2.0   352      4.5   902.4    0.00       0    42.1
 340    3:00   38.8    84    1.9   358      4.7   902.4    0.00       0    42.0
 340    3:10   38.9    84    2.4    14      5.0   902.4    0.00       0    41.9
 340    3:20   38.7    83    1.8    11      5.0   902.5    0.00       0    41.8
 340    3:30   38.5    84    2.6     4      4.7   902.5    0.00       0    41.7
 340    3:40   38.4    84    2.3    18      4.7   902.8    0.00       0    41.6
 340    3:50   38.2    84    2.1    15      3.9   902.8    0.00       0    41.6
 340    4:00   38.0    84    1.1   340      3.4   902.9    0.00       0    41.4
 340    4:10   37.0    84    0.2   253      0.9   902.9    0.00       0    41.4
 340    4:20   36.2    86    0.0   250      0.6   903.0    0.00       0    41.2
 340    4:30   35.8    86    0.0     0      0.0   903.0    0.00       0    41.2
 340    4:40   35.2    87    0.0   252      0.4   903.1    0.00       0    41.0
 340    4:50   34.9    88    0.1   250      0.7   903.1    0.00       0    40.9
 340    5:00   34.4    88    0.0     0      0.0   903.2    0.00       0    40.8
 340    5:10   34.3    89    0.0     0      0.0   903.2    0.00       0    40.7
 340    5:20   34.1    89    0.0     0      0.0   903.3    0.00       0    40.6
 340    5:30   33.9    90    0.1   302      0.8   903.5    0.00       0    40.5
 340    5:40   33.8    90    0.2    34      1.2   903.4    0.00       0    40.4
 340    5:50   33.6    91    0.1   352      0.7   903.4    0.00       0    40.3
 340    6:00   33.3    91    0.0     0      0.0   903.4    0.00       0    40.2
 340    6:10   33.2    91    0.0     0      0.0   903.5    0.00       0    40.1
 340    6:20   32.9    92    0.1   354      0.7   903.5    0.00       0    40.1
 340    6:30   32.5    92    0.0     0      0.0   903.6    0.00       0    39.9
 340    6:40   32.4    92    0.0     0      0.0   903.6    0.00       0    39.8
 340    6:50   32.0    92    0.1   317      0.9   903.7    0.00       0    39.7
 340    7:00   31.9    92    0.0     0      0.0   903.8    0.00       3    39.6
 340    7:10   31.8    92    0.0     0      0.0   903.9    0.00      13    39.5
 340    7:20   31.7    92    0.0     0      0.0   904.0    0.00      14    39.4
 340    7:30   31.9    93    0.0     0      0.0   904.0    0.00      21    39.3
 340    7:40   32.5    93    0.0   263      0.4   904.1    0.00      27    39.2
 340    7:50   34.1    93    0.8   273      1.8   904.3    0.00      27    39.2
 340    8:00   35.8    92    0.7   356      2.4   904.4    0.00      28    39.1
 340    8:10   36.5    91    0.7    32      1.5   904.5    0.00      27    39.1
 340    8:20   36.9    90    0.1    25      0.9   904.4    0.00      26    39.2
 340    8:30   37.2    89    1.2   224      2.3   904.5    0.00      28    39.2
 340    8:40   38.5    88    0.9   265      2.3   904.4    0.00      51    39.2
 340    8:50   39.1    85    0.6   326      2.9   904.3    0.00      39    39.3
 340    9:00   40.3    82    0.3   350      1.5   904.3    0.00      34    39.4
 340    9:10   41.1    79    0.5   315      3.0   904.3    0.00      41    39.5
 340    9:20   41.5    77    1.9   358      3.9   904.4    0.00      42    39.6
 340    9:30   41.8    77    1.5    18      4.5   904.3    0.00      29    39.7
 340    9:40   42.6    76    1.5   330      3.7   904.3    0.00      32    39.8
 340    9:50   43.5    74    2.0   341      3.9   904.4    0.00      34    39.8
 340   10:00   44.4    72    2.0    21      6.1   904.4    0.00      34    39.9
 340   10:10   45.1    70    2.9     9      5.3   904.2    0.00      34    40.0
 340   10:20   46.1    69    3.0   352      4.8   904.1    0.00      36    40.2
 340   10:30   46.7    68    2.8   348      5.5   904.0    0.00      40    40.4
 340   10:40   47.4    67    3.3   349      6.4   903.8    0.00      41    40.8
 340   10:50   48.1    65    2.6     4      5.1   903.8    0.00      41    41.5
 340   11:00   48.5    64    2.6   353      4.5   903.7    0.00      41    42.3
 340   11:10   49.6    62    2.6   352      5.6   903.4    0.00      41    43.1
 340   11:20   50.1    60    2.2   358      4.4   903.2    0.00      41    43.9
 340   11:30   50.5    59    1.1   359      4.0   903.1    0.00      58    44.6
 340   11:40   51.9    58    1.6   326      4.3   902.9    0.00      55    45.0
 340   11:50   52.3    55    1.4    23      4.1   902.8    0.00      60    45.5
 340   12:00   53.3    53    0.8    36      3.4   902.7    0.00      71    46.0
 340   12:10   53.8    52    0.6    59      2.6   902.4    0.00      79    46.8
 340   12:20   54.3    51    1.1    21      2.6   902.1    0.00     376    47.7
 340   12:30   55.4    50    1.1   162      4.3   902.0    0.00     557    48.5
 340   12:40   56.9    48    1.2   228      3.9   901.8    0.00     517    49.4
 340   12:50   57.5    48    1.3   203      4.6   901.7    0.00     508    50.2
 340   13:00   57.7    48    1.5   196      4.7   901.5    0.00     492    50.9
 340   13:10   58.5    47    1.0   214      3.2   901.4    0.00     467    51.6
 340   13:20   58.1    48    2.1   191      6.4   901.2    0.00     451    52.2
 340   13:30   58.0    48    1.0   183      4.7   901.1    0.00     433    52.8
 340   13:40   58.6    48    1.9   188      4.7   901.0    0.00     415    53.2
 340   13:50   57.8    49    1.6   184      4.7   900.9    0.00     331    53.5
 340   14:00   56.9    50    1.4   187      4.7   900.9    0.00     284    53.8
 340   14:10   56.5    51    1.7   187      4.2   900.8    0.00     258    53.9
 340   14:20   56.6    51    1.5   186      4.3   900.8    0.00     245    53.9

Return to Alamo, Nevada graphs page.


Western Regional Climate Center,wrcc@dri.edu